Time,TemperatureF,DewpointF,PressureIn,WindDirection,WindDirectionDegrees,WindSpeedMPH,WindSpeedGustMPH,Humidity,HourlyPrecipIn,Conditions,Clouds,dailyrainin,SoftwareType,DateUTC
2013-02-19 00:02:00,41.0,25.0,29.78,SSW,195,5.0,-999.0,53,-99.99,,,-99.99,,2013-02-19 05:02:00,
2013-02-19 00:13:00,41.0,25.0,29.78,SSW,195,5.0,-999.0,53,-99.99,,,-99.99,,2013-02-19 05:13:00,
2013-02-19 00:23:00,42.0,26.0,29.77,SE,128,4.0,-999.0,53,-99.99,,,-99.99,,2013-02-19 05:23:00,
2013-02-19 00:32:00,41.0,25.0,29.75,SSE,161,3.0,-999.0,53,-99.99,,,-99.99,,2013-02-19 05:32:00,
2013-02-19 00:43:00,41.0,25.0,29.75,SSE,161,3.0,-999.0,53,-99.99,,,-99.99,,2013-02-19 05:43:00,
2013-02-19 00:52:00,41.0,26.0,29.74,North,349,3.0,-999.0,54,-99.99,,,-99.99,,2013-02-19 05:52:00,
2013-02-19 01:03:00,41.0,26.0,29.74,SE,145,3.0,-999.0,55,-99.99,,,-99.99,,2013-02-19 06:03:00,
2013-02-19 01:12:00,41.0,26.0,29.74,SE,145,3.0,-999.0,55,-99.99,,,-99.99,,2013-02-19 06:12:00,
2013-02-19 01:22:00,41.0,26.0,29.74,East,83,2.0,-999.0,55,-99.99,,,-99.99,,2013-02-19 06:22:00,
2013-02-19 01:32:00,40.0,26.0,29.73,East,97,2.0,-999.0,56,-99.99,,,-99.99,,2013-02-19 06:32:00,
2013-02-19 01:42:00,40.0,26.0,29.73,East,97,2.0,-999.0,56,-99.99,,,-99.99,,2013-02-19 06:42:00,
2013-02-19 01:52:00,40.0,26.0,29.72,SE,145,1.0,-999.0,56,-99.99,,,-99.99,,2013-02-19 06:52:00,
2013-02-19 02:02:00,40.0,26.0,29.72,SE,145,1.0,-999.0,56,-99.99,,,-99.99,,2013-02-19 07:02:00,
2013-02-19 02:12:00,40.0,26.0,29.72,SE,145,1.0,-999.0,56,-99.99,,,-99.99,,2013-02-19 07:12:00,
2013-02-19 02:22:00,43.0,27.0,29.70,SSE,147,6.0,-999.0,53,-99.99,,,-99.99,,2013-02-19 07:22:00,
2013-02-19 02:32:00,42.0,26.0,29.69,SE,138,4.0,-999.0,53,-99.99,,,-99.99,,2013-02-19 07:32:00,
2013-02-19 02:42:00,42.0,26.0,29.69,SE,138,4.0,-999.0,53,-99.99,,,-99.99,,2013-02-19 07:42:00,
2013-02-19 02:52:00,42.0,26.0,29.68,South,189,5.0,-999.0,53,-99.99,,,-99.99,,2013-02-19 07:52:00,
2013-02-19 03:02:00,43.0,27.0,29.68,SSW,200,8.0,-999.0,52,-99.99,,,-99.99,,2013-02-19 08:02:00,
2013-02-19 03:11:00,43.0,27.0,29.68,SSW,200,8.0,-999.0,52,-99.99,,,-99.99,,2013-02-19 08:11:00,
2013-02-19 03:22:00,43.0,27.0,29.67,SSW,199,7.0,-999.0,52,-99.99,,,-99.99,,2013-02-19 08:22:00,
2013-02-19 03:32:00,43.0,29.0,29.67,SW,232,7.0,-999.0,57,-99.99,,,-99.99,,2013-02-19 08:32:00,
2013-02-19 03:42:00,43.0,29.0,29.67,SW,232,7.0,-999.0,57,-99.99,,,-99.99,,2013-02-19 08:42:00,
2013-02-19 03:52:00,38.0,32.0,29.69,SSW,210,9.0,-999.0,79,-99.99,,,-99.99,,2013-02-19 08:52:00,
2013-02-19 04:02:00,37.0,33.0,29.69,SSE,147,5.0,-999.0,85,-99.99,,,-99.99,,2013-02-19 09:02:00,
2013-02-19 04:11:00,37.0,33.0,29.69,SSE,147,5.0,-999.0,85,-99.99,,,-99.99,,2013-02-19 09:11:00,
2013-02-19 04:22:00,36.0,33.0,29.67,South,176,4.0,-999.0,87,-99.99,,,-99.99,,2013-02-19 09:22:00,
2013-02-19 04:32:00,36.0,33.0,29.66,SSE,151,6.0,-999.0,88,-99.99,,,-99.99,,2013-02-19 09:32:00,
2013-02-19 04:42:00,36.0,33.0,29.66,SSE,151,6.0,-999.0,88,-99.99,,,-99.99,,2013-02-19 09:42:00,
2013-02-19 04:52:00,35.0,32.0,29.64,SSE,155,4.0,-999.0,89,-99.99,,,-99.99,,2013-02-19 09:52:00,
2013-02-19 05:02:00,36.0,33.0,29.63,SSE,152,4.0,-999.0,90,-99.99,,,-99.99,,2013-02-19 10:02:00,
2013-02-19 05:11:00,36.0,33.0,29.63,SSE,152,4.0,-999.0,90,-99.99,,,-99.99,,2013-02-19 10:11:00,
2013-02-19 05:22:00,36.0,33.0,29.62,South,185,4.0,-999.0,90,-99.99,,,-99.99,,2013-02-19 10:22:00,
2013-02-19 05:32:00,37.0,34.0,29.61,SE,145,5.0,-999.0,90,-99.99,,,-99.99,,2013-02-19 10:32:00,
2013-02-19 05:42:00,37.0,34.0,29.61,SE,145,5.0,-999.0,90,-99.99,,,-99.99,,2013-02-19 10:42:00,
2013-02-19 05:52:00,37.0,34.0,29.60,South,182,6.0,-999.0,90,-99.99,,,-99.99,,2013-02-19 10:52:00,
2013-02-19 06:01:00,37.0,34.0,29.60,SSW,196,5.0,-999.0,90,-99.99,,,-99.99,,2013-02-19 11:01:00,
2013-02-19 06:11:00,37.0,34.0,29.60,SSW,196,5.0,-999.0,90,-99.99,,,-99.99,,2013-02-19 11:11:00,
2013-02-19 06:22:00,37.0,34.0,29.59,SW,216,4.0,-999.0,90,-99.99,,,-99.99,,2013-02-19 11:22:00,
2013-02-19 06:32:00,37.0,34.0,29.58,SSW,192,6.0,-999.0,90,-99.99,,,-99.99,,2013-02-19 11:32:00,
2013-02-19 06:42:00,37.0,34.0,29.58,SSW,192,6.0,-999.0,90,-99.99,,,-99.99,,2013-02-19 11:42:00,
2013-02-19 06:52:00,37.0,34.0,29.58,South,174,6.0,-999.0,90,-99.99,,,-99.99,,2013-02-19 11:52:00,
2013-02-19 07:02:00,37.0,34.0,29.58,SW,224,6.0,-999.0,90,-99.99,,,-99.99,,2013-02-19 12:02:00,
2013-02-19 07:12:00,37.0,34.0,29.58,SW,224,6.0,-999.0,90,-99.99,,,-99.99,,2013-02-19 12:12:00,
2013-02-19 07:22:00,37.0,34.0,29.58,SW,224,6.0,-999.0,90,-99.99,,,-99.99,,2013-02-19 12:22:00,
2013-02-19 07:32:00,37.0,34.0,29.57,SSE,148,6.0,-999.0,90,-99.99,,,-99.99,,2013-02-19 12:32:00,
2013-02-19 07:42:00,37.0,34.0,29.57,SSE,148,6.0,-999.0,90,-99.99,,,-99.99,,2013-02-19 12:42:00,
2013-02-19 07:53:00,37.0,34.0,29.57,South,175,6.0,-999.0,90,-99.99,,,-99.99,,2013-02-19 12:53:00,
2013-02-19 08:02:00,37.0,34.0,29.56,SSE,165,5.0,-999.0,90,-99.99,,,-99.99,,2013-02-19 13:02:00,
2013-02-19 08:11:00,37.0,34.0,29.56,SSE,165,5.0,-999.0,90,-99.99,,,-99.99,,2013-02-19 13:11:00,
2013-02-19 08:22:00,37.0,34.0,29.56,South,169,7.0,-999.0,90,-99.99,,,-99.99,,2013-02-19 13:22:00,
2013-02-19 08:32:00,37.0,34.0,29.55,SSE,157,6.0,-999.0,90,-99.99,,,-99.99,,2013-02-19 13:32:00,
2013-02-19 08:42:00,37.0,34.0,29.55,SSE,157,6.0,-999.0,90,-99.99,,,-99.99,,2013-02-19 13:42:00,
2013-02-19 08:52:00,38.0,35.0,29.54,South,171,7.0,-999.0,90,-99.99,,,-99.99,,2013-02-19 13:52:00,
2013-02-19 09:02:00,38.0,35.0,29.54,SSE,157,7.0,-999.0,90,-99.99,,,-99.99,,2013-02-19 14:02:00,
2013-02-19 09:12:00,38.0,35.0,29.54,SSE,157,7.0,-999.0,90,-99.99,,,-99.99,,2013-02-19 14:12:00,
2013-02-19 09:22:00,38.0,35.0,29.53,SW,234,7.0,-999.0,90,-99.99,,,-99.99,,2013-02-19 14:22:00,
2013-02-19 09:33:00,38.0,35.0,29.53,SW,226,7.0,-999.0,90,-99.99,,,-99.99,,2013-02-19 14:33:00,
2013-02-19 09:42:00,38.0,35.0,29.53,SW,226,7.0,-999.0,90,-99.99,,,-99.99,,2013-02-19 14:42:00,
2013-02-19 09:52:00,38.0,35.0,29.52,South,169,6.0,-999.0,89,-99.99,,,-99.99,,2013-02-19 14:52:00,
2013-02-19 10:02:00,38.0,35.0,29.52,SSE,147,6.0,-999.0,89,-99.99,,,-99.99,,2013-02-19 15:02:00,
2013-02-19 10:11:00,38.0,35.0,29.52,SSE,147,6.0,-999.0,89,-99.99,,,-99.99,,2013-02-19 15:11:00,
2013-02-19 10:22:00,38.0,35.0,29.52,SSW,199,7.0,-999.0,90,-99.99,,,-99.99,,2013-02-19 15:22:00,
2013-02-19 10:32:00,38.0,35.0,29.51,South,175,6.0,-999.0,90,-99.99,,,-99.99,,2013-02-19 15:32:00,
2013-02-19 10:42:00,38.0,35.0,29.51,South,175,6.0,-999.0,90,-99.99,,,-99.99,,2013-02-19 15:42:00,
2013-02-19 10:52:00,38.0,35.0,29.51,SSW,212,8.0,-999.0,90,-99.99,,,-99.99,,2013-02-19 15:52:00,
2013-02-19 11:02:00,38.0,35.0,29.52,SSW,206,9.0,-999.0,90,-99.99,,,-99.99,,2013-02-19 16:02:00,
2013-02-19 11:11:00,38.0,35.0,29.52,SSW,206,9.0,-999.0,90,-99.99,,,-99.99,,2013-02-19 16:11:00,
2013-02-19 11:22:00,38.0,35.0,29.52,SSW,206,9.0,-999.0,90,-99.99,,,-99.99,,2013-02-19 16:22:00,
2013-02-19 11:32:00,37.0,34.0,29.53,WSW,251,6.0,-999.0,90,-99.99,,,-99.99,,2013-02-19 16:32:00,
2013-02-19 11:42:00,37.0,34.0,29.53,WSW,251,6.0,-999.0,90,-99.99,,,-99.99,,2013-02-19 16:42:00,
2013-02-19 11:52:00,37.0,34.0,29.53,SW,230,3.0,-999.0,90,-99.99,,,-99.99,,2013-02-19 16:52:00,
2013-02-19 12:01:00,35.0,32.0,29.54,SSW,206,5.0,-999.0,89,-99.99,,,-99.99,,2013-02-19 17:01:00,
2013-02-19 12:11:00,35.0,32.0,29.54,SSW,206,5.0,-999.0,89,-99.99,,,-99.99,,2013-02-19 17:11:00,
2013-02-19 12:21:00,35.0,32.0,29.54,SW,234,5.0,-999.0,90,-99.99,,,-99.99,,2013-02-19 17:21:00,
2013-02-19 12:32:00,34.0,30.0,29.55,SW,230,8.0,-999.0,86,-99.99,,,-99.99,,2013-02-19 17:32:00,
2013-02-19 12:42:00,34.0,30.0,29.55,SW,230,8.0,-999.0,86,-99.99,,,-99.99,,2013-02-19 17:42:00,
2013-02-19 12:52:00,34.0,29.0,29.56,SW,217,5.0,-999.0,82,-99.99,,,-99.99,,2013-02-19 17:52:00,
2013-02-19 13:02:00,33.0,28.0,29.56,South,189,6.0,-999.0,82,-99.99,,,-99.99,,2013-02-19 18:02:00,
2013-02-19 13:11:00,33.0,28.0,29.56,South,189,6.0,-999.0,82,-99.99,,,-99.99,,2013-02-19 18:11:00,
2013-02-19 13:21:00,33.0,28.0,29.56,WSW,248,5.0,-999.0,83,-99.99,,,-99.99,,2013-02-19 18:21:00,
2013-02-19 13:32:00,32.0,27.0,29.56,SSW,206,8.0,-999.0,80,-99.99,,,-99.99,,2013-02-19 18:32:00,
2013-02-19 13:42:00,32.0,27.0,29.56,SSW,206,8.0,-999.0,80,-99.99,,,-99.99,,2013-02-19 18:42:00,
2013-02-19 13:52:00,32.0,26.0,29.57,WSW,254,6.0,-999.0,78,-99.99,,,-99.99,,2013-02-19 18:52:00,
2013-02-19 14:01:00,31.0,24.0,29.57,SW,222,9.0,-999.0,76,-99.99,,,-99.99,,2013-02-19 19:01:00,
2013-02-19 14:11:00,31.0,24.0,29.57,SW,222,9.0,-999.0,76,-99.99,,,-99.99,,2013-02-19 19:11:00,
2013-02-19 14:21:00,30.0,23.0,29.58,SSW,193,8.0,-999.0,74,-99.99,,,-99.99,,2013-02-19 19:21:00,
2013-02-19 14:32:00,30.0,22.0,29.59,WSW,243,10.0,-999.0,71,-99.99,,,-99.99,,2013-02-19 19:32:00,
2013-02-19 14:42:00,30.0,22.0,29.59,WSW,243,10.0,-999.0,71,-99.99,,,-99.99,,2013-02-19 19:42:00,
2013-02-19 14:52:00,29.0,21.0,29.59,WSW,239,7.0,-999.0,73,-99.99,,,-99.99,,2013-02-19 19:52:00,
2013-02-19 15:02:00,29.0,22.0,29.60,WSW,254,8.0,-999.0,75,-99.99,,,-99.99,,2013-02-19 20:02:00,
2013-02-19 15:12:00,29.0,22.0,29.60,WSW,254,8.0,-999.0,75,-99.99,,,-99.99,,2013-02-19 20:12:00,
2013-02-19 15:22:00,28.0,21.0,29.61,WSW,246,8.0,-999.0,76,-99.99,,,-99.99,,2013-02-19 20:22:00,
2013-02-19 15:32:00,28.0,20.0,29.63,West,271,7.0,-999.0,71,-99.99,,,-99.99,,2013-02-19 20:32:00,
2013-02-19 15:42:00,28.0,20.0,29.63,West,271,7.0,-999.0,71,-99.99,,,-99.99,,2013-02-19 20:42:00,
2013-02-19 15:52:00,28.0,20.0,29.63,West,271,7.0,-999.0,71,-99.99,,,-99.99,,2013-02-19 20:52:00,
2013-02-19 16:02:00,28.0,21.0,29.64,South,191,9.0,-999.0,75,-99.99,,,-99.99,,2013-02-19 21:02:00,
2013-02-19 16:11:00,28.0,21.0,29.64,South,191,9.0,-999.0,75,-99.99,,,-99.99,,2013-02-19 21:11:00,
2013-02-19 16:21:00,28.0,21.0,29.65,SSW,208,7.0,-999.0,74,-99.99,,,-99.99,,2013-02-19 21:21:00,
2013-02-19 16:32:00,27.0,20.0,29.65,SW,219,6.0,-999.0,76,-99.99,,,-99.99,,2013-02-19 21:32:00,
2013-02-19 16:42:00,27.0,20.0,29.65,SW,219,6.0,-999.0,76,-99.99,,,-99.99,,2013-02-19 21:42:00,
2013-02-19 16:51:00,27.0,20.0,29.65,SW,219,6.0,-999.0,76,-99.99,,,-99.99,,2013-02-19 21:51:00,
2013-02-19 17:02:00,26.0,22.0,29.66,SSW,209,7.0,-999.0,86,-99.99,,,-99.99,,2013-02-19 22:02:00,
2013-02-19 17:11:00,26.0,22.0,29.66,SSW,209,7.0,-999.0,86,-99.99,,,-99.99,,2013-02-19 22:11:00,
2013-02-19 17:22:00,25.0,21.0,29.67,West,281,8.0,-999.0,85,-99.99,,,-99.99,,2013-02-19 22:22:00,
2013-02-19 17:32:00,25.0,20.0,29.68,WSW,251,6.0,-999.0,80,-99.99,,,-99.99,,2013-02-19 22:32:00,
2013-02-19 17:42:00,25.0,20.0,29.68,WSW,251,6.0,-999.0,80,-99.99,,,-99.99,,2013-02-19 22:42:00,
2013-02-19 17:52:00,25.0,19.0,29.69,SW,220,7.0,-999.0,77,-99.99,,,-99.99,,2013-02-19 22:52:00,
2013-02-19 18:01:00,25.0,19.0,29.69,SW,223,6.0,-999.0,78,-99.99,,,-99.99,,2013-02-19 23:01:00,
2013-02-19 18:11:00,25.0,19.0,29.69,SW,223,6.0,-999.0,78,-99.99,,,-99.99,,2013-02-19 23:11:00,
2013-02-19 18:21:00,25.0,20.0,29.70,South,189,8.0,-999.0,80,-99.99,,,-99.99,,2013-02-19 23:21:00,
2013-02-19 18:32:00,25.0,20.0,29.71,SW,229,5.0,-999.0,82,-99.99,,,-99.99,,2013-02-19 23:32:00,
2013-02-19 18:42:00,25.0,20.0,29.71,SW,229,5.0,-999.0,82,-99.99,,,-99.99,,2013-02-19 23:42:00,
2013-02-19 18:52:00,25.0,20.0,29.71,SW,229,5.0,-999.0,82,-99.99,,,-99.99,,2013-02-19 23:52:00,
2013-02-19 19:02:00,23.0,19.0,29.74,WSW,256,6.0,-999.0,86,-99.99,,,-99.99,,2013-02-20 00:02:00,
2013-02-19 19:11:00,23.0,19.0,29.74,WSW,256,6.0,-999.0,86,-99.99,,,-99.99,,2013-02-20 00:11:00,
2013-02-19 19:22:00,23.0,19.0,29.75,WSW,241,4.0,-999.0,85,-99.99,,,-99.99,,2013-02-20 00:22:00,
2013-02-19 19:32:00,22.0,19.0,29.76,WSW,257,6.0,-999.0,87,-99.99,,,-99.99,,2013-02-20 00:32:00,
2013-02-19 19:42:00,22.0,19.0,29.76,WSW,257,6.0,-999.0,87,-99.99,,,-99.99,,2013-02-20 00:42:00,
2013-02-19 19:52:00,22.0,19.0,29.76,SSW,208,5.0,-999.0,87,-99.99,,,-99.99,,2013-02-20 00:52:00,
2013-02-19 20:02:00,22.0,18.0,29.77,South,172,7.0,-999.0,85,-99.99,,,-99.99,,2013-02-20 01:02:00,
2013-02-19 20:11:00,22.0,18.0,29.77,South,172,7.0,-999.0,85,-99.99,,,-99.99,,2013-02-20 01:11:00,
2013-02-19 20:22:00,21.0,17.0,29.77,WSW,246,6.0,-999.0,85,-99.99,,,-99.99,,2013-02-20 01:22:00,
2013-02-19 20:32:00,22.0,18.0,29.77,WSW,244,4.0,-999.0,85,-99.99,,,-99.99,,2013-02-20 01:32:00,
2013-02-19 20:42:00,22.0,18.0,29.77,WSW,244,4.0,-999.0,85,-99.99,,,-99.99,,2013-02-20 01:42:00,
2013-02-19 20:52:00,22.0,18.0,29.78,SW,226,2.0,-999.0,85,-99.99,,,-99.99,,2013-02-20 01:52:00,
2013-02-19 21:02:00,21.0,17.0,29.78,SSW,210,4.0,-999.0,86,-99.99,,,-99.99,,2013-02-20 02:02:00,
2013-02-19 21:11:00,21.0,17.0,29.78,SSW,210,4.0,-999.0,86,-99.99,,,-99.99,,2013-02-20 02:11:00,
2013-02-19 21:22:00,21.0,17.0,29.78,SW,222,6.0,-999.0,85,-99.99,,,-99.99,,2013-02-20 02:22:00,
2013-02-19 21:32:00,20.0,16.0,29.78,SW,223,7.0,-999.0,86,-99.99,,,-99.99,,2013-02-20 02:32:00,
2013-02-19 21:42:00,20.0,16.0,29.78,SW,223,7.0,-999.0,86,-99.99,,,-99.99,,2013-02-20 02:42:00,
2013-02-19 21:52:00,20.0,16.0,29.78,SW,223,7.0,-999.0,86,-99.99,,,-99.99,,2013-02-20 02:52:00,
2013-02-19 22:02:00,19.0,16.0,29.80,NNW,339,5.0,-999.0,88,-99.99,,,-99.99,,2013-02-20 03:02:00,
2013-02-19 22:12:00,19.0,16.0,29.80,NNW,339,5.0,-999.0,88,-99.99,,,-99.99,,2013-02-20 03:12:00,
2013-02-19 22:22:00,18.0,15.0,29.81,WSW,257,7.0,-999.0,87,-99.99,,,-99.99,,2013-02-20 03:22:00,
2013-02-19 22:32:00,18.0,15.0,29.81,WSW,257,7.0,-999.0,87,-99.99,,,-99.99,,2013-02-20 03:32:00,
2013-02-19 22:42:00,18.0,15.0,29.81,WSW,257,7.0,-999.0,87,-99.99,,,-99.99,,2013-02-20 03:42:00,
2013-02-19 22:52:00,18.0,15.0,29.81,WSW,257,7.0,-999.0,87,-99.99,,,-99.99,,2013-02-20 03:52:00,
2013-02-19 23:02:00,17.0,13.0,29.82,South,191,7.0,-999.0,84,-99.99,,,-99.99,,2013-02-20 04:02:00,
2013-02-19 23:11:00,17.0,13.0,29.82,South,191,7.0,-999.0,84,-99.99,,,-99.99,,2013-02-20 04:11:00,
2013-02-19 23:22:00,17.0,12.0,29.82,SW,217,8.0,-999.0,82,-99.99,,,-99.99,,2013-02-20 04:22:00,
2013-02-19 23:32:00,17.0,13.0,29.83,SW,227,8.0,-999.0,83,-99.99,,,-99.99,,2013-02-20 04:32:00,
2013-02-19 23:42:00,17.0,13.0,29.83,SW,227,8.0,-999.0,83,-99.99,,,-99.99,,2013-02-20 04:42:00,
2013-02-19 23:52:00,17.0,13.0,29.83,SW,215,6.0,-999.0,83,-99.99,,,-99.99,,2013-02-20 04:52:00,